sensor_id;sensor_type;location;lat;lon;timestamp;P1;durP1;ratioP1;P2;durP2;ratioP2
66707;SDS011;53622;0.000;0.000;2023-03-31T00:02:04;1.48;;;0.93;;
66707;SDS011;53622;0.000;0.000;2023-03-31T00:04:39;1.35;;;1.20;;
66707;SDS011;53622;0.000;0.000;2023-03-31T00:07:12;2.33;;;1.58;;
66707;SDS011;53622;0.000;0.000;2023-03-31T00:09:42;1.80;;;1.05;;
66707;SDS011;53622;0.000;0.000;2023-03-31T00:12:13;2.72;;;1.15;;
66707;SDS011;53622;0.000;0.000;2023-03-31T00:14:43;2.10;;;1.30;;
66707;SDS011;53622;0.000;0.000;2023-03-31T00:17:13;3.30;;;1.30;;
66707;SDS011;53622;0.000;0.000;2023-03-31T00:19:43;5.60;;;1.00;;
66707;SDS011;53622;0.000;0.000;2023-03-31T00:22:16;2.67;;;1.02;;
66707;SDS011;53622;0.000;0.000;2023-03-31T00:24:48;2.00;;;1.15;;
66707;SDS011;53622;0.000;0.000;2023-03-31T00:27:17;2.05;;;1.48;;
66707;SDS011;53622;0.000;0.000;2023-03-31T00:29:46;2.67;;;1.33;;
66707;SDS011;53622;0.000;0.000;2023-03-31T00:32:18;2.25;;;1.05;;
66707;SDS011;53622;0.000;0.000;2023-03-31T00:34:47;2.05;;;1.20;;
66707;SDS011;53622;0.000;0.000;2023-03-31T00:37:17;3.33;;;1.35;;
66707;SDS011;53622;0.000;0.000;2023-03-31T00:39:48;1.38;;;1.20;;
66707;SDS011;53622;0.000;0.000;2023-03-31T00:42:17;1.77;;;1.20;;
66707;SDS011;53622;0.000;0.000;2023-03-31T00:47:53;2.00;;;1.25;;
66707;SDS011;53622;0.000;0.000;2023-03-31T00:50:30;1.30;;;1.20;;
66707;SDS011;53622;0.000;0.000;2023-03-31T00:53:04;1.75;;;1.30;;
66707;SDS011;53622;0.000;0.000;2023-03-31T00:55:38;1.58;;;1.10;;
66707;SDS011;53622;0.000;0.000;2023-03-31T00:58:11;1.27;;;1.10;;
66707;SDS011;53622;0.000;0.000;2023-03-31T01:00:46;1.45;;;1.20;;
66707;SDS011;53622;0.000;0.000;2023-03-31T01:03:18;4.47;;;1.40;;
66707;SDS011;53622;0.000;0.000;2023-03-31T01:05:49;2.33;;;1.30;;
66707;SDS011;53622;0.000;0.000;2023-03-31T01:08:21;1.85;;;1.10;;
66707;SDS011;53622;0.000;0.000;2023-03-31T01:10:54;1.35;;;1.15;;
66707;SDS011;53622;0.000;0.000;2023-03-31T01:13:25;1.63;;;1.10;;
66707;SDS011;53622;0.000;0.000;2023-03-31T01:15:56;2.50;;;1.40;;
66707;SDS011;53622;0.000;0.000;2023-03-31T01:18:27;2.17;;;1.10;;
66707;SDS011;53622;0.000;0.000;2023-03-31T01:24:15;1.85;;;1.45;;
66707;SDS011;53622;0.000;0.000;2023-03-31T01:30:20;1.70;;;1.20;;
66707;SDS011;53622;0.000;0.000;2023-03-31T01:36:50;1.58;;;1.40;;
66707;SDS011;53622;0.000;0.000;2023-03-31T01:42:52;2.45;;;1.20;;
66707;SDS011;53622;0.000;0.000;2023-03-31T01:45:29;1.85;;;1.30;;
66707;SDS011;53622;0.000;0.000;2023-03-31T01:48:06;2.03;;;1.40;;
66707;SDS011;53622;0.000;0.000;2023-03-31T01:50:42;3.08;;;1.30;;
66707;SDS011;53622;0.000;0.000;2023-03-31T01:53:16;2.28;;;1.13;;
66707;SDS011;53622;0.000;0.000;2023-03-31T01:55:56;1.63;;;1.38;;
66707;SDS011;53622;0.000;0.000;2023-03-31T01:58:33;1.95;;;1.20;;
66707;SDS011;53622;0.000;0.000;2023-03-31T02:01:07;1.38;;;1.20;;
66707;SDS011;53622;0.000;0.000;2023-03-31T02:03:47;1.73;;;1.10;;
66707;SDS011;53622;0.000;0.000;2023-03-31T02:06:22;2.28;;;1.30;;
66707;SDS011;53622;0.000;0.000;2023-03-31T02:08:56;2.45;;;1.33;;
66707;SDS011;53622;0.000;0.000;2023-03-31T02:11:34;1.60;;;1.33;;
66707;SDS011;53622;0.000;0.000;2023-03-31T02:14:08;1.42;;;1.20;;
66707;SDS011;53622;0.000;0.000;2023-03-31T02:16:39;1.73;;;1.20;;
66707;SDS011;53622;0.000;0.000;2023-03-31T02:19:14;2.15;;;1.40;;
66707;SDS011;53622;0.000;0.000;2023-03-31T02:21:46;1.58;;;1.25;;
66707;SDS011;53622;0.000;0.000;2023-03-31T02:24:18;2.17;;;1.40;;
66707;SDS011;53622;0.000;0.000;2023-03-31T02:26:51;1.77;;;1.20;;
66707;SDS011;53622;0.000;0.000;2023-03-31T02:29:25;1.48;;;1.30;;
66707;SDS011;53622;0.000;0.000;2023-03-31T02:31:55;1.67;;;1.17;;
66707;SDS011;53622;0.000;0.000;2023-03-31T02:34:31;3.10;;;1.52;;
66707;SDS011;53622;0.000;0.000;2023-03-31T02:37:00;2.28;;;1.35;;
66707;SDS011;53622;0.000;0.000;2023-03-31T02:39:31;2.88;;;1.50;;
66707;SDS011;53622;0.000;0.000;2023-03-31T02:42:02;3.05;;;1.50;;
66707;SDS011;53622;0.000;0.000;2023-03-31T02:44:36;1.70;;;1.20;;
66707;SDS011;53622;0.000;0.000;2023-03-31T02:47:07;1.75;;;1.30;;
66707;SDS011;53622;0.000;0.000;2023-03-31T02:49:43;1.92;;;1.30;;
66707;SDS011;53622;0.000;0.000;2023-03-31T02:52:30;1.95;;;1.20;;
66707;SDS011;53622;0.000;0.000;2023-03-31T02:55:19;3.03;;;1.30;;
66707;SDS011;53622;0.000;0.000;2023-03-31T03:01:09;2.28;;;1.40;;
66707;SDS011;53622;0.000;0.000;2023-03-31T03:03:50;1.83;;;1.42;;
66707;SDS011;53622;0.000;0.000;2023-03-31T03:06:30;3.95;;;2.00;;
66707;SDS011;53622;0.000;0.000;2023-03-31T03:09:19;2.97;;;1.10;;
66707;SDS011;53622;0.000;0.000;2023-03-31T03:12:05;2.28;;;1.70;;
66707;SDS011;53622;0.000;0.000;2023-03-31T03:14:41;1.63;;;1.40;;
66707;SDS011;53622;0.000;0.000;2023-03-31T03:17:20;1.40;;;1.08;;
66707;SDS011;53622;0.000;0.000;2023-03-31T03:19:52;1.83;;;1.13;;
66707;SDS011;53622;0.000;0.000;2023-03-31T03:22:23;2.63;;;1.23;;
66707;SDS011;53622;0.000;0.000;2023-03-31T03:24:53;1.60;;;1.10;;
66707;SDS011;53622;0.000;0.000;2023-03-31T03:27:22;2.95;;;1.50;;
66707;SDS011;53622;0.000;0.000;2023-03-31T03:29:52;2.28;;;1.42;;
66707;SDS011;53622;0.000;0.000;2023-03-31T03:32:22;2.25;;;1.40;;
66707;SDS011;53622;0.000;0.000;2023-03-31T03:34:52;1.75;;;1.10;;
66707;SDS011;53622;0.000;0.000;2023-03-31T03:37:21;2.97;;;1.40;;
66707;SDS011;53622;0.000;0.000;2023-03-31T03:39:50;1.90;;;1.23;;
66707;SDS011;53622;0.000;0.000;2023-03-31T03:42:19;2.90;;;1.20;;
66707;SDS011;53622;0.000;0.000;2023-03-31T03:44:49;1.65;;;1.23;;
66707;SDS011;53622;0.000;0.000;2023-03-31T03:47:18;1.83;;;1.10;;
66707;SDS011;53622;0.000;0.000;2023-03-31T03:49:49;1.48;;;1.17;;
66707;SDS011;53622;0.000;0.000;2023-03-31T03:52:18;0.90;;;0.90;;
66707;SDS011;53622;0.000;0.000;2023-03-31T03:54:47;1.67;;;1.10;;
66707;SDS011;53622;0.000;0.000;2023-03-31T03:57:17;2.15;;;1.40;;
66707;SDS011;53622;0.000;0.000;2023-03-31T03:59:46;2.05;;;1.17;;
66707;SDS011;53622;0.000;0.000;2023-03-31T04:02:15;1.65;;;1.00;;
66707;SDS011;53622;0.000;0.000;2023-03-31T04:04:45;2.67;;;1.10;;
66707;SDS011;53622;0.000;0.000;2023-03-31T04:07:16;1.63;;;1.10;;
66707;SDS011;53622;0.000;0.000;2023-03-31T04:09:45;3.30;;;1.20;;
66707;SDS011;53622;0.000;0.000;2023-03-31T04:12:15;2.47;;;1.58;;
66707;SDS011;53622;0.000;0.000;2023-03-31T04:14:44;2.05;;;1.20;;
66707;SDS011;53622;0.000;0.000;2023-03-31T04:17:13;2.03;;;1.00;;
66707;SDS011;53622;0.000;0.000;2023-03-31T04:19:42;2.00;;;1.10;;
66707;SDS011;53622;0.000;0.000;2023-03-31T04:22:18;1.88;;;1.20;;
66707;SDS011;53622;0.000;0.000;2023-03-31T04:24:47;3.20;;;1.20;;
66707;SDS011;53622;0.000;0.000;2023-03-31T04:27:19;3.67;;;1.30;;
66707;SDS011;53622;0.000;0.000;2023-03-31T04:29:49;3.08;;;1.00;;
66707;SDS011;53622;0.000;0.000;2023-03-31T04:32:21;5.93;;;1.50;;
66707;SDS011;53622;0.000;0.000;2023-03-31T04:34:51;4.78;;;1.20;;
66707;SDS011;53622;0.000;0.000;2023-03-31T04:37:30;3.55;;;1.17;;
66707;SDS011;53622;0.000;0.000;2023-03-31T04:40:01;2.47;;;1.02;;
66707;SDS011;53622;0.000;0.000;2023-03-31T04:42:36;2.45;;;0.93;;
66707;SDS011;53622;0.000;0.000;2023-03-31T04:45:05;1.45;;;0.95;;
66707;SDS011;53622;0.000;0.000;2023-03-31T04:47:35;2.15;;;1.15;;
66707;SDS011;53622;0.000;0.000;2023-03-31T04:50:05;2.05;;;1.20;;
66707;SDS011;53622;0.000;0.000;2023-03-31T04:52:43;2.58;;;1.30;;
66707;SDS011;53622;0.000;0.000;2023-03-31T04:55:13;1.50;;;1.00;;
66707;SDS011;53622;0.000;0.000;2023-03-31T04:57:42;4.05;;;1.15;;
66707;SDS011;53622;0.000;0.000;2023-03-31T05:00:11;2.33;;;1.10;;
66707;SDS011;53622;0.000;0.000;2023-03-31T05:02:41;2.67;;;1.23;;
66707;SDS011;53622;0.000;0.000;2023-03-31T05:05:11;1.58;;;1.10;;
66707;SDS011;53622;0.000;0.000;2023-03-31T05:07:40;2.80;;;1.33;;
66707;SDS011;53622;0.000;0.000;2023-03-31T05:10:11;2.22;;;0.90;;
66707;SDS011;53622;0.000;0.000;2023-03-31T05:12:42;1.17;;;1.00;;
66707;SDS011;53622;0.000;0.000;2023-03-31T05:15:11;1.55;;;1.02;;
66707;SDS011;53622;0.000;0.000;2023-03-31T05:17:40;1.50;;;1.13;;
66707;SDS011;53622;0.000;0.000;2023-03-31T05:20:10;1.77;;;0.88;;
66707;SDS011;53622;0.000;0.000;2023-03-31T05:22:40;1.98;;;1.08;;
66707;SDS011;53622;0.000;0.000;2023-03-31T05:25:12;2.63;;;1.13;;
66707;SDS011;53622;0.000;0.000;2023-03-31T05:27:44;1.88;;;0.98;;
66707;SDS011;53622;0.000;0.000;2023-03-31T05:30:15;1.85;;;1.10;;
66707;SDS011;53622;0.000;0.000;2023-03-31T05:32:45;1.20;;;1.10;;
66707;SDS011;53622;0.000;0.000;2023-03-31T05:35:14;2.00;;;0.90;;
66707;SDS011;53622;0.000;0.000;2023-03-31T05:37:43;1.42;;;0.90;;
66707;SDS011;53622;0.000;0.000;2023-03-31T05:40:14;6.88;;;1.15;;
66707;SDS011;53622;0.000;0.000;2023-03-31T05:42:44;4.03;;;1.27;;
66707;SDS011;53622;0.000;0.000;2023-03-31T05:45:13;2.03;;;1.00;;
66707;SDS011;53622;0.000;0.000;2023-03-31T05:47:42;4.15;;;1.10;;
66707;SDS011;53622;0.000;0.000;2023-03-31T05:50:12;1.75;;;1.08;;
66707;SDS011;53622;0.000;0.000;2023-03-31T05:52:41;3.67;;;1.30;;
66707;SDS011;53622;0.000;0.000;2023-03-31T05:55:10;3.75;;;1.20;;
66707;SDS011;53622;0.000;0.000;2023-03-31T05:57:41;4.35;;;1.20;;
66707;SDS011;53622;0.000;0.000;2023-03-31T06:00:11;2.65;;;1.10;;
66707;SDS011;53622;0.000;0.000;2023-03-31T06:05:39;2.50;;;1.15;;
66707;SDS011;53622;0.000;0.000;2023-03-31T06:08:15;3.08;;;1.20;;
66707;SDS011;53622;0.000;0.000;2023-03-31T06:10:45;2.63;;;1.00;;
66707;SDS011;53622;0.000;0.000;2023-03-31T06:13:15;2.92;;;1.45;;
66707;SDS011;53622;0.000;0.000;2023-03-31T06:15:51;2.75;;;1.10;;
66707;SDS011;53622;0.000;0.000;2023-03-31T06:18:35;9.02;;;1.30;;
66707;SDS011;53622;0.000;0.000;2023-03-31T06:25:01;2.13;;;1.05;;
66707;SDS011;53622;0.000;0.000;2023-03-31T06:27:30;2.47;;;1.25;;
66707;SDS011;53622;0.000;0.000;2023-03-31T06:30:01;3.78;;;1.40;;
66707;SDS011;53622;0.000;0.000;2023-03-31T06:32:31;2.83;;;1.20;;
66707;SDS011;53622;0.000;0.000;2023-03-31T06:35:00;7.18;;;1.38;;
66707;SDS011;53622;0.000;0.000;2023-03-31T06:37:29;3.55;;;1.38;;
66707;SDS011;53622;0.000;0.000;2023-03-31T06:39:58;7.25;;;1.20;;
66707;SDS011;53622;0.000;0.000;2023-03-31T06:42:28;2.80;;;1.17;;
66707;SDS011;53622;0.000;0.000;2023-03-31T06:44:57;2.90;;;1.20;;
66707;SDS011;53622;0.000;0.000;2023-03-31T06:47:28;2.72;;;1.25;;
66707;SDS011;53622;0.000;0.000;2023-03-31T06:49:57;2.50;;;1.42;;
66707;SDS011;53622;0.000;0.000;2023-03-31T06:52:26;3.70;;;1.30;;
66707;SDS011;53622;0.000;0.000;2023-03-31T06:54:55;3.90;;;1.25;;
66707;SDS011;53622;0.000;0.000;2023-03-31T06:57:26;4.03;;;1.50;;
66707;SDS011;53622;0.000;0.000;2023-03-31T06:59:56;2.75;;;1.33;;
66707;SDS011;53622;0.000;0.000;2023-03-31T07:02:25;2.45;;;1.20;;
66707;SDS011;53622;0.000;0.000;2023-03-31T07:04:56;2.50;;;1.35;;
66707;SDS011;53622;0.000;0.000;2023-03-31T07:07:25;3.55;;;1.50;;
66707;SDS011;53622;0.000;0.000;2023-03-31T07:09:58;3.25;;;1.20;;
66707;SDS011;53622;0.000;0.000;2023-03-31T07:12:27;5.25;;;1.58;;
66707;SDS011;53622;0.000;0.000;2023-03-31T07:14:59;3.22;;;1.50;;
66707;SDS011;53622;0.000;0.000;2023-03-31T07:17:29;7.25;;;1.50;;
66707;SDS011;53622;0.000;0.000;2023-03-31T07:19:59;3.38;;;1.42;;
66707;SDS011;53622;0.000;0.000;2023-03-31T07:22:31;2.45;;;1.40;;
66707;SDS011;53622;0.000;0.000;2023-03-31T07:25:00;3.47;;;1.58;;
66707;SDS011;53622;0.000;0.000;2023-03-31T07:27:29;2.35;;;1.25;;
66707;SDS011;53622;0.000;0.000;2023-03-31T07:29:58;2.25;;;1.50;;
66707;SDS011;53622;0.000;0.000;2023-03-31T07:32:28;5.50;;;1.65;;
66707;SDS011;53622;0.000;0.000;2023-03-31T07:34:57;3.08;;;1.40;;
66707;SDS011;53622;0.000;0.000;2023-03-31T07:37:29;3.97;;;1.80;;
66707;SDS011;53622;0.000;0.000;2023-03-31T07:40:03;3.47;;;1.95;;
66707;SDS011;53622;0.000;0.000;2023-03-31T07:42:33;4.15;;;1.45;;
66707;SDS011;53622;0.000;0.000;2023-03-31T07:45:03;3.90;;;1.80;;
66707;SDS011;53622;0.000;0.000;2023-03-31T07:47:34;4.60;;;1.70;;
66707;SDS011;53622;0.000;0.000;2023-03-31T07:50:05;2.17;;;1.45;;
66707;SDS011;53622;0.000;0.000;2023-03-31T07:52:37;1.92;;;1.42;;
66707;SDS011;53622;0.000;0.000;2023-03-31T07:55:07;2.63;;;1.50;;
66707;SDS011;53622;0.000;0.000;2023-03-31T07:57:36;4.00;;;1.63;;
66707;SDS011;53622;0.000;0.000;2023-03-31T08:00:07;3.13;;;1.77;;
66707;SDS011;53622;0.000;0.000;2023-03-31T08:02:38;2.53;;;1.65;;
66707;SDS011;53622;0.000;0.000;2023-03-31T08:05:09;2.17;;;1.38;;
66707;SDS011;53622;0.000;0.000;2023-03-31T08:07:42;3.38;;;1.40;;
66707;SDS011;53622;0.000;0.000;2023-03-31T08:10:14;2.58;;;1.67;;
66707;SDS011;53622;0.000;0.000;2023-03-31T08:12:45;2.67;;;1.50;;
66707;SDS011;53622;0.000;0.000;2023-03-31T08:15:14;4.72;;;2.13;;
66707;SDS011;53622;0.000;0.000;2023-03-31T08:17:44;2.60;;;1.75;;
66707;SDS011;53622;0.000;0.000;2023-03-31T08:20:14;4.18;;;1.73;;
66707;SDS011;53622;0.000;0.000;2023-03-31T08:22:44;2.85;;;1.80;;
66707;SDS011;53622;0.000;0.000;2023-03-31T08:25:13;2.53;;;1.88;;
66707;SDS011;53622;0.000;0.000;2023-03-31T08:27:43;2.85;;;1.77;;
66707;SDS011;53622;0.000;0.000;2023-03-31T08:30:15;2.72;;;1.85;;
66707;SDS011;53622;0.000;0.000;2023-03-31T08:32:45;3.25;;;1.80;;
66707;SDS011;53622;0.000;0.000;2023-03-31T08:35:15;4.90;;;2.05;;
66707;SDS011;53622;0.000;0.000;2023-03-31T08:37:45;4.57;;;2.40;;
66707;SDS011;53622;0.000;0.000;2023-03-31T08:40:15;2.95;;;2.08;;
66707;SDS011;53622;0.000;0.000;2023-03-31T08:42:48;5.70;;;2.15;;
66707;SDS011;53622;0.000;0.000;2023-03-31T08:45:21;3.30;;;2.20;;
66707;SDS011;53622;0.000;0.000;2023-03-31T08:47:54;5.80;;;2.28;;
66707;SDS011;53622;0.000;0.000;2023-03-31T08:50:27;5.25;;;2.10;;
66707;SDS011;53622;0.000;0.000;2023-03-31T08:53:02;5.32;;;2.20;;
66707;SDS011;53622;0.000;0.000;2023-03-31T08:55:35;3.40;;;2.42;;
66707;SDS011;53622;0.000;0.000;2023-03-31T08:58:13;3.53;;;2.30;;
66707;SDS011;53622;0.000;0.000;2023-03-31T09:00:57;3.33;;;2.30;;
66707;SDS011;53622;0.000;0.000;2023-03-31T09:03:34;3.35;;;2.33;;
66707;SDS011;53622;0.000;0.000;2023-03-31T09:06:11;3.65;;;2.45;;
66707;SDS011;53622;0.000;0.000;2023-03-31T09:08:45;4.18;;;2.22;;
66707;SDS011;53622;0.000;0.000;2023-03-31T09:11:18;3.42;;;2.40;;
66707;SDS011;53622;0.000;0.000;2023-03-31T09:14:04;4.22;;;2.30;;
66707;SDS011;53622;0.000;0.000;2023-03-31T09:16:44;4.43;;;2.45;;
66707;SDS011;53622;0.000;0.000;2023-03-31T09:19:22;3.25;;;2.42;;
66707;SDS011;53622;0.000;0.000;2023-03-31T09:22:00;3.22;;;2.20;;
66707;SDS011;53622;0.000;0.000;2023-03-31T09:24:33;3.45;;;2.38;;
66707;SDS011;53622;0.000;0.000;2023-03-31T09:27:11;2.80;;;2.33;;
66707;SDS011;53622;0.000;0.000;2023-03-31T09:29:41;3.05;;;2.28;;
66707;SDS011;53622;0.000;0.000;2023-03-31T09:32:16;6.55;;;2.67;;
66707;SDS011;53622;0.000;0.000;2023-03-31T09:34:49;7.35;;;2.85;;
66707;SDS011;53622;0.000;0.000;2023-03-31T09:37:24;5.72;;;3.00;;
66707;SDS011;53622;0.000;0.000;2023-03-31T09:39:57;3.75;;;2.78;;
66707;SDS011;53622;0.000;0.000;2023-03-31T09:42:28;5.25;;;3.25;;
66707;SDS011;53622;0.000;0.000;2023-03-31T09:44:58;7.10;;;3.53;;
66707;SDS011;53622;0.000;0.000;2023-03-31T09:47:30;5.68;;;3.95;;
66707;SDS011;53622;0.000;0.000;2023-03-31T09:50:05;5.78;;;2.95;;
66707;SDS011;53622;0.000;0.000;2023-03-31T09:52:37;6.78;;;2.67;;
66707;SDS011;53622;0.000;0.000;2023-03-31T09:55:16;6.95;;;3.00;;
66707;SDS011;53622;0.000;0.000;2023-03-31T09:58:05;3.75;;;3.00;;
66707;SDS011;53622;0.000;0.000;2023-03-31T10:00:34;5.45;;;2.83;;
66707;SDS011;53622;0.000;0.000;2023-03-31T10:03:04;4.13;;;2.53;;
66707;SDS011;53622;0.000;0.000;2023-03-31T10:05:35;5.05;;;2.72;;
66707;SDS011;53622;0.000;0.000;2023-03-31T10:08:20;6.68;;;3.17;;
66707;SDS011;53622;0.000;0.000;2023-03-31T10:10:54;7.93;;;3.00;;
66707;SDS011;53622;0.000;0.000;2023-03-31T10:13:25;5.70;;;3.20;;
66707;SDS011;53622;0.000;0.000;2023-03-31T10:16:00;11.27;;;3.70;;
66707;SDS011;53622;0.000;0.000;2023-03-31T10:18:32;9.90;;;3.42;;
66707;SDS011;53622;0.000;0.000;2023-03-31T10:21:04;6.57;;;3.10;;
66707;SDS011;53622;0.000;0.000;2023-03-31T10:23:35;6.05;;;2.80;;
66707;SDS011;53622;0.000;0.000;2023-03-31T10:26:10;7.22;;;3.30;;
66707;SDS011;53622;0.000;0.000;2023-03-31T10:28:43;6.22;;;3.00;;
66707;SDS011;53622;0.000;0.000;2023-03-31T10:31:15;7.30;;;3.00;;
66707;SDS011;53622;0.000;0.000;2023-03-31T10:33:47;7.45;;;2.80;;
66707;SDS011;53622;0.000;0.000;2023-03-31T10:36:20;6.28;;;3.10;;
66707;SDS011;53622;0.000;0.000;2023-03-31T10:38:53;6.75;;;2.75;;
66707;SDS011;53622;0.000;0.000;2023-03-31T10:41:25;9.60;;;3.28;;
66707;SDS011;53622;0.000;0.000;2023-03-31T10:43:56;9.88;;;3.35;;
66707;SDS011;53622;0.000;0.000;2023-03-31T10:46:40;7.95;;;3.67;;
66707;SDS011;53622;0.000;0.000;2023-03-31T10:49:14;10.18;;;3.60;;
66707;SDS011;53622;0.000;0.000;2023-03-31T10:51:51;11.38;;;4.32;;
66707;SDS011;53622;0.000;0.000;2023-03-31T10:54:22;11.95;;;4.50;;
66707;SDS011;53622;0.000;0.000;2023-03-31T10:56:54;7.40;;;4.10;;
66707;SDS011;53622;0.000;0.000;2023-03-31T10:59:37;10.43;;;3.58;;
66707;SDS011;53622;0.000;0.000;2023-03-31T11:02:20;8.10;;;3.97;;
66707;SDS011;53622;0.000;0.000;2023-03-31T11:05:10;6.35;;;3.47;;
66707;SDS011;53622;0.000;0.000;2023-03-31T11:07:46;7.93;;;3.22;;
66707;SDS011;53622;0.000;0.000;2023-03-31T11:10:34;11.48;;;3.42;;
66707;SDS011;53622;0.000;0.000;2023-03-31T11:13:19;9.40;;;3.67;;
66707;SDS011;53622;0.000;0.000;2023-03-31T11:15:54;9.98;;;3.67;;
66707;SDS011;53622;0.000;0.000;2023-03-31T11:18:34;6.07;;;3.33;;
66707;SDS011;53622;0.000;0.000;2023-03-31T11:21:13;8.55;;;3.67;;
66707;SDS011;53622;0.000;0.000;2023-03-31T11:23:50;9.55;;;3.55;;
66707;SDS011;53622;0.000;0.000;2023-03-31T11:26:28;5.90;;;3.92;;
66707;SDS011;53622;0.000;0.000;2023-03-31T11:29:10;7.10;;;3.67;;
66707;SDS011;53622;0.000;0.000;2023-03-31T11:31:51;4.95;;;3.40;;
66707;SDS011;53622;0.000;0.000;2023-03-31T11:37:36;6.43;;;3.28;;
66707;SDS011;53622;0.000;0.000;2023-03-31T11:40:20;8.80;;;3.35;;
66707;SDS011;53622;0.000;0.000;2023-03-31T11:43:04;4.35;;;3.03;;
66707;SDS011;53622;0.000;0.000;2023-03-31T11:45:42;4.72;;;3.40;;
66707;SDS011;53622;0.000;0.000;2023-03-31T11:48:15;7.80;;;3.50;;
66707;SDS011;53622;0.000;0.000;2023-03-31T11:50:53;5.00;;;3.67;;
66707;SDS011;53622;0.000;0.000;2023-03-31T11:53:25;7.13;;;3.75;;
66707;SDS011;53622;0.000;0.000;2023-03-31T11:55:57;7.25;;;2.75;;
66707;SDS011;53622;0.000;0.000;2023-03-31T11:58:33;7.10;;;3.25;;
66707;SDS011;53622;0.000;0.000;2023-03-31T12:01:08;6.88;;;3.10;;
66707;SDS011;53622;0.000;0.000;2023-03-31T12:03:47;5.13;;;2.90;;
66707;SDS011;53622;0.000;0.000;2023-03-31T12:06:24;5.85;;;3.08;;
66707;SDS011;53622;0.000;0.000;2023-03-31T12:09:01;5.07;;;3.20;;
66707;SDS011;53622;0.000;0.000;2023-03-31T12:11:39;3.83;;;2.95;;
66707;SDS011;53622;0.000;0.000;2023-03-31T12:14:26;4.45;;;3.10;;
66707;SDS011;53622;0.000;0.000;2023-03-31T12:17:03;4.13;;;3.05;;
66707;SDS011;53622;0.000;0.000;2023-03-31T12:19:41;4.85;;;2.97;;
66707;SDS011;53622;0.000;0.000;2023-03-31T12:22:13;4.97;;;3.00;;
66707;SDS011;53622;0.000;0.000;2023-03-31T12:24:46;7.25;;;2.90;;
66707;SDS011;53622;0.000;0.000;2023-03-31T12:27:16;7.47;;;3.05;;
66707;SDS011;53622;0.000;0.000;2023-03-31T12:29:50;7.40;;;3.15;;
66707;SDS011;53622;0.000;0.000;2023-03-31T12:32:27;10.38;;;3.13;;
66707;SDS011;53622;0.000;0.000;2023-03-31T12:35:01;9.23;;;3.30;;
66707;SDS011;53622;0.000;0.000;2023-03-31T12:40:30;7.05;;;3.72;;
66707;SDS011;53622;0.000;0.000;2023-03-31T12:43:13;8.23;;;3.80;;
66707;SDS011;53622;0.000;0.000;2023-03-31T12:46:15;8.48;;;3.97;;
66707;SDS011;53622;0.000;0.000;2023-03-31T12:49:03;8.93;;;3.65;;
66707;SDS011;53622;0.000;0.000;2023-03-31T12:51:59;9.23;;;3.72;;
66707;SDS011;53622;0.000;0.000;2023-03-31T12:54:34;9.35;;;4.40;;
66707;SDS011;53622;0.000;0.000;2023-03-31T12:57:23;9.40;;;3.90;;
66707;SDS011;53622;0.000;0.000;2023-03-31T13:00:14;7.13;;;3.78;;
66707;SDS011;53622;0.000;0.000;2023-03-31T13:02:50;4.63;;;3.55;;
66707;SDS011;53622;0.000;0.000;2023-03-31T13:06:49;8.23;;;3.40;;
66707;SDS011;53622;0.000;0.000;2023-03-31T13:12:10;6.93;;;3.70;;
66707;SDS011;53622;0.000;0.000;2023-03-31T13:14:43;5.65;;;3.53;;
66707;SDS011;53622;0.000;0.000;2023-03-31T13:17:23;6.97;;;3.60;;
66707;SDS011;53622;0.000;0.000;2023-03-31T13:19:55;7.65;;;3.83;;
66707;SDS011;53622;0.000;0.000;2023-03-31T13:22:44;7.15;;;3.88;;
66707;SDS011;53622;0.000;0.000;2023-03-31T13:28:10;7.60;;;4.35;;
66707;SDS011;53622;0.000;0.000;2023-03-31T13:30:48;6.85;;;3.80;;
66707;SDS011;53622;0.000;0.000;2023-03-31T13:33:22;7.90;;;3.97;;
66707;SDS011;53622;0.000;0.000;2023-03-31T13:36:18;15.43;;;4.57;;
66707;SDS011;53622;0.000;0.000;2023-03-31T13:39:14;7.57;;;4.10;;
66707;SDS011;53622;0.000;0.000;2023-03-31T13:42:10;8.35;;;3.92;;
66707;SDS011;53622;0.000;0.000;2023-03-31T13:45:00;8.32;;;3.97;;
66707;SDS011;53622;0.000;0.000;2023-03-31T13:47:41;6.63;;;3.72;;
66707;SDS011;53622;0.000;0.000;2023-03-31T13:50:36;7.82;;;4.40;;
66707;SDS011;53622;0.000;0.000;2023-03-31T13:53:18;6.80;;;4.20;;
66707;SDS011;53622;0.000;0.000;2023-03-31T13:56:06;8.73;;;4.25;;
66707;SDS011;53622;0.000;0.000;2023-03-31T13:58:46;8.13;;;3.75;;
66707;SDS011;53622;0.000;0.000;2023-03-31T14:04:39;5.93;;;3.97;;
66707;SDS011;53622;0.000;0.000;2023-03-31T14:07:28;7.13;;;3.92;;
66707;SDS011;53622;0.000;0.000;2023-03-31T14:10:02;6.32;;;3.53;;
66707;SDS011;53622;0.000;0.000;2023-03-31T14:12:35;5.00;;;3.40;;
66707;SDS011;53622;0.000;0.000;2023-03-31T14:15:06;6.78;;;4.00;;
66707;SDS011;53622;0.000;0.000;2023-03-31T14:17:45;6.28;;;3.58;;
66707;SDS011;53622;0.000;0.000;2023-03-31T14:20:20;7.47;;;3.90;;
66707;SDS011;53622;0.000;0.000;2023-03-31T14:23:03;5.70;;;3.08;;
66707;SDS011;53622;0.000;0.000;2023-03-31T14:25:47;5.97;;;3.40;;
66707;SDS011;53622;0.000;0.000;2023-03-31T14:28:28;5.60;;;3.53;;
66707;SDS011;53622;0.000;0.000;2023-03-31T14:31:15;5.30;;;3.40;;
66707;SDS011;53622;0.000;0.000;2023-03-31T14:34:01;6.90;;;3.40;;
66707;SDS011;53622;0.000;0.000;2023-03-31T14:36:52;5.10;;;3.53;;
66707;SDS011;53622;0.000;0.000;2023-03-31T14:39:28;6.28;;;3.45;;
66707;SDS011;53622;0.000;0.000;2023-03-31T14:42:02;5.22;;;3.25;;
66707;SDS011;53622;0.000;0.000;2023-03-31T14:44:34;5.28;;;3.30;;
66707;SDS011;53622;0.000;0.000;2023-03-31T14:47:04;7.03;;;3.20;;
66707;SDS011;53622;0.000;0.000;2023-03-31T14:49:34;7.47;;;3.33;;
66707;SDS011;53622;0.000;0.000;2023-03-31T14:52:11;6.30;;;3.10;;
66707;SDS011;53622;0.000;0.000;2023-03-31T14:54:43;6.07;;;3.50;;
66707;SDS011;53622;0.000;0.000;2023-03-31T14:57:15;8.55;;;3.55;;
66707;SDS011;53622;0.000;0.000;2023-03-31T14:59:49;6.25;;;3.03;;
66707;SDS011;53622;0.000;0.000;2023-03-31T15:02:22;6.43;;;3.15;;
66707;SDS011;53622;0.000;0.000;2023-03-31T15:05:00;5.00;;;2.78;;
66707;SDS011;53622;0.000;0.000;2023-03-31T15:07:34;4.53;;;2.65;;
66707;SDS011;53622;0.000;0.000;2023-03-31T15:10:05;5.63;;;2.92;;
66707;SDS011;53622;0.000;0.000;2023-03-31T15:12:36;4.30;;;2.85;;
66707;SDS011;53622;0.000;0.000;2023-03-31T15:15:09;3.75;;;2.80;;
66707;SDS011;53622;0.000;0.000;2023-03-31T15:17:42;3.40;;;2.65;;
66707;SDS011;53622;0.000;0.000;2023-03-31T15:23:17;5.60;;;2.83;;
66707;SDS011;53622;0.000;0.000;2023-03-31T15:25:52;3.85;;;2.38;;
66707;SDS011;53622;0.000;0.000;2023-03-31T15:28:26;3.90;;;2.58;;
66707;SDS011;53622;0.000;0.000;2023-03-31T15:31:02;5.70;;;2.70;;
66707;SDS011;53622;0.000;0.000;2023-03-31T15:33:37;4.75;;;2.53;;
66707;SDS011;53622;0.000;0.000;2023-03-31T15:36:09;4.32;;;2.33;;
66707;SDS011;53622;0.000;0.000;2023-03-31T15:38:40;4.25;;;2.05;;
66707;SDS011;53622;0.000;0.000;2023-03-31T15:41:11;3.95;;;2.22;;
66707;SDS011;53622;0.000;0.000;2023-03-31T15:43:44;4.23;;;2.30;;
66707;SDS011;53622;0.000;0.000;2023-03-31T15:46:19;3.63;;;2.28;;
66707;SDS011;53622;0.000;0.000;2023-03-31T15:48:54;5.15;;;2.30;;
66707;SDS011;53622;0.000;0.000;2023-03-31T15:51:24;3.90;;;2.03;;
66707;SDS011;53622;0.000;0.000;2023-03-31T15:53:58;8.27;;;2.15;;
66707;SDS011;53622;0.000;0.000;2023-03-31T15:56:28;3.72;;;1.90;;
66707;SDS011;53622;0.000;0.000;2023-03-31T15:59:03;4.63;;;2.50;;
66707;SDS011;53622;0.000;0.000;2023-03-31T16:01:36;4.82;;;2.30;;
66707;SDS011;53622;0.000;0.000;2023-03-31T16:04:09;4.05;;;2.20;;
66707;SDS011;53622;0.000;0.000;2023-03-31T16:06:43;3.65;;;1.85;;
66707;SDS011;53622;0.000;0.000;2023-03-31T16:09:15;3.58;;;1.67;;
66707;SDS011;53622;0.000;0.000;2023-03-31T16:11:48;4.15;;;2.10;;
66707;SDS011;53622;0.000;0.000;2023-03-31T16:14:21;8.15;;;2.20;;
66707;SDS011;53622;0.000;0.000;2023-03-31T16:16:58;3.25;;;1.80;;
66707;SDS011;53622;0.000;0.000;2023-03-31T16:19:37;4.47;;;2.05;;
66707;SDS011;53622;0.000;0.000;2023-03-31T16:22:11;7.70;;;1.80;;
66707;SDS011;53622;0.000;0.000;2023-03-31T16:24:44;5.68;;;1.90;;
66707;SDS011;53622;0.000;0.000;2023-03-31T16:27:14;3.03;;;1.85;;
66707;SDS011;53622;0.000;0.000;2023-03-31T16:29:44;3.00;;;1.70;;